Terminal Aerodrome Forecast
Issued by NWS

Home | Current Version | Previous Version | Graphics & Text | Print | Product List | Glossary On
Versions: 1 2 3 4 5 6 7 8 9 10 11 12 13 14 15 16 17 18 19
000
FTUS43 KMPX 221910 AAA
TAFRWF
TAF AMD
KRWF 221910Z 2219/2318 35011G17KT P6SM SCT250
     FM230000 34007KT P6SM SKC
     FM231600 36006KT P6SM SCT040=

USA.gov is the U.S. government's official web portal to all federal, state and local government web resources and services.